createdAt,value
2018-11-27T00:04:24.115Z,99748.00
2018-11-27T00:06:53.103Z,99751.00
2018-11-27T00:09:22.124Z,99753.00
2018-11-27T00:11:51.150Z,99757.00
2018-11-27T00:14:20.216Z,99755.00
2018-11-27T00:16:49.438Z,99751.00
2018-11-27T00:19:18.469Z,99751.00
2018-11-27T00:21:47.519Z,99752.00
2018-11-27T00:24:16.598Z,99754.00
2018-11-27T00:26:45.679Z,99755.00
2018-11-27T00:29:14.667Z,99756.00
2018-11-27T00:31:43.701Z,99758.00
2018-11-27T00:34:12.730Z,99756.00
2018-11-27T00:36:41.855Z,99762.00
2018-11-27T00:39:12.875Z,99760.00
2018-11-27T00:41:42.822Z,99761.00
2018-11-27T00:44:12.009Z,99764.00
2018-11-27T00:46:41.000Z,99763.00
2018-11-27T00:49:10.015Z,99771.00
2018-11-27T00:51:39.054Z,99771.00
2018-11-27T00:54:08.189Z,99768.00
2018-11-27T00:56:37.170Z,99771.00
2018-11-27T00:59:06.220Z,99780.00
2018-11-27T01:01:35.247Z,99772.00
2018-11-27T01:04:04.452Z,99780.00
2018-11-27T01:06:33.490Z,99787.00
2018-11-27T01:09:02.693Z,99784.00
2018-11-27T01:11:31.678Z,99784.00
2018-11-27T01:14:00.707Z,99784.00
2018-11-27T01:16:29.787Z,99788.00
2018-11-27T01:18:58.835Z,99791.00
2018-11-27T01:21:27.902Z,99793.00
2018-11-27T01:23:56.930Z,99790.00
2018-11-27T01:26:26.006Z,99789.00
2018-11-27T01:28:55.046Z,99793.00
2018-11-27T01:31:24.116Z,99797.00
2018-11-27T01:33:53.159Z,99798.00
2018-11-27T01:36:22.419Z,99798.00
2018-11-27T01:38:51.495Z,99799.00
2018-11-27T01:41:20.458Z,99805.00
2018-11-27T01:43:49.490Z,99806.00
2018-11-27T01:46:18.499Z,99813.00
2018-11-27T01:48:47.494Z,99807.00
2018-11-27T01:51:16.548Z,99810.00
2018-11-27T01:53:45.606Z,99816.00
2018-11-27T01:56:14.662Z,99811.00
2018-11-27T01:58:43.678Z,99818.00
2018-11-27T02:01:12.687Z,99812.00
2018-11-27T02:03:41.722Z,99813.00
2018-11-27T02:06:10.738Z,99807.00
2018-11-27T02:08:39.739Z,99812.00
2018-11-27T02:11:08.958Z,99813.00
2018-11-27T02:13:38.015Z,99808.00
2018-11-27T02:16:07.617Z,99804.00
2018-11-27T02:18:36.995Z,99804.00
2018-11-27T02:21:06.071Z,99806.00
2018-11-27T02:23:35.232Z,99809.00
2018-11-27T02:26:04.313Z,99811.00
2018-11-27T02:28:33.356Z,99808.00
2018-11-27T02:31:02.374Z,99808.00
2018-11-27T02:33:31.425Z,99802.00
2018-11-27T02:36:00.427Z,99795.00
2018-11-27T02:38:29.451Z,99801.00
2018-11-27T02:40:58.467Z,99791.00
2018-11-27T02:43:27.511Z,99799.00
2018-11-27T02:45:56.521Z,99796.00
2018-11-27T02:48:25.608Z,99793.00
2018-11-27T02:50:54.627Z,99793.00
2018-11-27T02:53:23.643Z,99791.00
2018-11-27T02:55:52.679Z,99788.00
2018-11-27T02:58:21.694Z,99790.00
2018-11-27T03:00:50.765Z,99792.00
2018-11-27T03:03:19.943Z,99792.00
2018-11-27T03:05:49.003Z,99795.00
2018-11-27T03:08:18.063Z,99797.00
2018-11-27T03:10:47.098Z,99798.00
2018-11-27T03:13:16.147Z,99798.00
2018-11-27T03:15:46.132Z,99800.00
2018-11-27T03:18:16.165Z,99801.00
2018-11-27T03:20:46.348Z,99800.00
2018-11-27T03:23:16.322Z,99805.00
2018-11-27T03:25:46.267Z,99805.00
2018-11-27T03:28:15.329Z,99802.00
2018-11-27T03:30:44.358Z,99801.00
2018-11-27T03:33:13.352Z,99809.00
2018-11-27T03:35:42.395Z,99807.00
2018-11-27T03:38:11.458Z,99818.00
2018-11-27T03:40:40.443Z,99823.00
2018-11-27T03:43:09.547Z,99823.00
2018-11-27T03:45:38.571Z,99820.00
2018-11-27T03:48:07.563Z,99817.00
2018-11-27T03:50:36.559Z,99822.00
2018-11-27T03:53:05.861Z,99820.00
2018-11-27T03:55:35.153Z,99820.00
2018-11-27T03:58:04.760Z,99823.00
2018-11-27T04:00:34.783Z,99820.00
2018-11-27T04:03:09.144Z,99825.00
2018-11-27T04:05:38.742Z,99828.00
2018-11-27T04:08:10.092Z,99833.00
2018-11-27T04:10:40.778Z,99839.00
2018-11-27T04:13:11.064Z,99840.00
2018-11-27T04:15:40.794Z,99846.00
2018-11-27T04:23:06.879Z,99851.00
2018-11-27T04:25:35.879Z,99852.00
2018-11-27T04:28:04.884Z,99853.00
2018-11-27T04:30:33.926Z,99847.00
2018-11-27T04:33:03.039Z,99848.00
2018-11-27T04:35:32.040Z,99848.00
2018-11-27T04:38:01.124Z,99854.00
2018-11-27T04:40:30.188Z,99858.00
2018-11-27T04:42:59.210Z,99859.00
2018-11-27T04:45:28.244Z,99859.00
2018-11-27T04:47:57.339Z,99859.00
2018-11-27T04:50:26.459Z,99867.00
2018-11-27T04:52:55.511Z,99870.00
2018-11-27T04:55:24.518Z,99872.00
2018-11-27T04:57:53.769Z,99875.00
2018-11-27T05:00:27.328Z,99874.00
2018-11-27T05:02:56.447Z,99873.00
2018-11-27T05:05:25.439Z,99878.00
2018-11-27T05:07:54.432Z,99878.00
2018-11-27T05:10:24.312Z,99884.00
2018-11-27T05:12:53.437Z,99878.00
2018-11-27T05:15:25.203Z,99879.00
2018-11-27T05:17:56.852Z,99878.00
2018-11-27T05:20:25.885Z,99876.00
2018-11-27T05:22:54.922Z,99874.00
2018-11-27T05:25:24.002Z,99873.00
2018-11-27T05:27:55.781Z,99882.00
2018-11-27T05:30:28.582Z,99882.00
2018-11-27T05:32:58.118Z,99881.00
2018-11-27T05:35:30.198Z,99882.00
2018-11-27T05:38:01.388Z,99884.00
2018-11-27T05:40:30.426Z,99887.00
2018-11-27T05:43:02.889Z,99890.00
2018-11-27T05:45:32.552Z,99887.00
2018-11-27T05:48:01.621Z,99891.00
2018-11-27T05:50:30.667Z,99887.00
2018-11-27T05:52:59.809Z,99897.00
2018-11-27T05:55:28.868Z,99899.00
2018-11-27T05:57:58.167Z,99901.00
2018-11-27T06:00:28.882Z,99901.00
2018-11-27T06:03:02.033Z,99902.00
2018-11-27T06:05:31.213Z,99897.00
2018-11-27T06:08:00.278Z,99904.00
2018-11-27T06:10:29.351Z,99905.00
2018-11-27T06:12:58.486Z,99908.00
2018-11-27T06:15:27.545Z,99918.00
2018-11-27T06:17:59.578Z,99918.00
2018-11-27T06:20:28.657Z,99926.00
2018-11-27T06:22:57.713Z,99930.00
2018-11-27T06:25:29.083Z,99931.00
2018-11-27T06:28:01.464Z,99938.00
2018-11-27T06:30:33.214Z,99935.00
2018-11-27T06:33:03.784Z,99939.00
2018-11-27T06:35:37.739Z,99945.00
2018-11-27T06:38:09.155Z,99950.00
2018-11-27T06:40:43.849Z,99945.00
2018-11-27T06:43:14.392Z,99954.00
2018-11-27T06:45:44.777Z,99957.00
2018-11-27T06:48:14.719Z,99963.00
2018-11-27T06:50:44.407Z,99967.00
2018-11-27T06:53:15.109Z,99978.00
2018-11-27T06:55:45.580Z,99974.00
2018-11-27T06:58:15.446Z,99985.00
2018-11-27T07:00:45.601Z,99985.00
2018-11-27T07:03:16.628Z,99991.00
2018-11-27T07:05:47.022Z,99990.00
2018-11-27T07:10:53.355Z,99986.00
2018-11-27T07:13:25.291Z,99987.00
2018-11-27T07:15:55.851Z,99989.00
2018-11-27T07:18:26.991Z,99993.00
2018-11-27T07:20:58.999Z,100002.00
2018-11-27T07:23:29.737Z,100010.00
2018-11-27T07:26:00.455Z,100010.00
2018-11-27T07:28:30.898Z,100015.00
2018-11-27T07:31:01.430Z,100021.00
2018-11-27T07:33:31.206Z,100013.00
2018-11-27T07:36:03.310Z,100021.00
2018-11-27T07:38:36.498Z,100021.00
2018-11-27T07:41:07.745Z,100027.00
2018-11-27T07:43:38.304Z,100029.00
2018-11-27T07:46:08.334Z,100034.00
2018-11-27T07:48:38.609Z,100034.00
2018-11-27T07:51:09.602Z,100040.00
2018-11-27T07:53:40.012Z,100037.00
2018-11-27T07:56:13.901Z,100047.00
2018-11-27T07:58:43.451Z,100049.00
2018-11-27T08:01:14.146Z,100050.00
2018-11-27T08:03:43.911Z,100050.00
2018-11-27T08:06:13.467Z,100054.00
2018-11-27T08:08:42.979Z,100054.00
2018-11-27T08:11:12.318Z,100054.00
2018-11-27T08:13:42.444Z,100052.00
2018-11-27T08:16:11.998Z,100053.00
2018-11-27T08:18:41.663Z,100052.00
2018-11-27T08:21:11.233Z,100049.00
2018-11-27T08:23:41.343Z,100053.00
2018-11-27T08:26:11.097Z,100056.00
2018-11-27T08:28:41.563Z,100062.00
2018-11-27T08:31:12.168Z,100059.00
2018-11-27T08:33:41.790Z,100067.00
2018-11-27T08:36:11.498Z,100067.00
2018-11-27T08:38:41.575Z,100071.00
2018-11-27T08:41:11.729Z,100072.00
2018-11-27T08:43:42.599Z,100069.00
2018-11-27T08:46:13.732Z,100073.00
2018-11-27T08:48:44.009Z,100070.00
2018-11-27T08:51:14.533Z,100072.00
2018-11-27T08:53:46.317Z,100071.00
2018-11-27T08:56:15.866Z,100074.00
2018-11-27T08:58:48.384Z,100077.00
2018-11-27T09:01:18.308Z,100075.00
2018-11-27T09:04:00.351Z,100072.00
2018-11-27T09:09:08.867Z,100079.00
2018-11-27T09:11:38.145Z,100084.00
2018-11-27T09:14:07.203Z,100085.00
2018-11-27T09:16:36.227Z,100085.00
2018-11-27T09:19:05.691Z,100082.00
2018-11-27T09:21:34.694Z,100077.00
2018-11-27T09:26:50.248Z,100082.00
2018-11-27T09:29:21.943Z,100075.00
2018-11-27T09:31:51.682Z,100076.00
2018-11-27T09:34:21.163Z,100070.00
2018-11-27T09:36:51.683Z,100069.00
2018-11-27T09:39:21.091Z,100070.00
2018-11-27T09:41:53.193Z,100071.00
2018-11-27T09:44:22.690Z,100078.00
2018-11-27T09:46:52.173Z,100079.00
2018-11-27T09:49:22.807Z,100070.00
2018-11-27T09:51:52.448Z,100069.00
2018-11-27T09:54:22.686Z,100068.00
2018-11-27T09:56:52.201Z,100064.00
2018-11-27T09:59:21.505Z,100062.00
2018-11-27T10:01:55.852Z,100078.00
2018-11-27T10:04:27.369Z,100073.00
2018-11-27T10:06:58.460Z,100076.00
2018-11-27T10:09:29.291Z,100075.00
2018-11-27T10:11:59.067Z,100078.00
2018-11-27T10:14:29.787Z,100077.00
2018-11-27T10:16:59.487Z,100079.00
2018-11-27T10:19:30.466Z,100085.00
2018-11-27T10:22:00.303Z,100079.00
2018-11-27T10:24:30.908Z,100080.00
2018-11-27T10:27:00.977Z,100081.00
2018-11-27T10:29:31.299Z,100090.00
2018-11-27T10:32:03.013Z,100094.00
2018-11-27T10:34:32.652Z,100095.00
2018-11-27T10:37:02.157Z,100101.00
2018-11-27T10:39:31.590Z,100100.00
2018-11-27T10:42:01.127Z,100100.00
2018-11-27T10:44:33.626Z,100101.00
2018-11-27T10:47:04.468Z,100100.00
2018-11-27T10:49:38.137Z,100096.00
2018-11-27T10:52:08.335Z,100090.00
2018-11-27T10:54:37.899Z,100086.00
2018-11-27T10:57:08.002Z,100087.00
2018-11-27T10:59:37.810Z,100085.00
2018-11-27T11:02:13.088Z,100090.00
2018-11-27T11:05:20.339Z,100084.00
2018-11-27T11:07:51.915Z,100094.00
2018-11-27T11:10:23.553Z,100095.00
2018-11-27T11:12:53.749Z,100097.00
2018-11-27T11:15:23.649Z,100099.00
2018-11-27T11:17:53.620Z,100097.00
2018-11-27T11:20:24.014Z,100094.00
2018-11-27T11:22:54.651Z,100089.00
2018-11-27T11:25:25.332Z,100088.00
2018-11-27T11:27:59.091Z,100090.00
2018-11-27T11:30:30.132Z,100091.00
2018-11-27T11:33:00.701Z,100091.00
2018-11-27T11:35:30.951Z,100091.00
2018-11-27T11:38:01.593Z,100094.00
2018-11-27T11:40:33.971Z,100102.00
2018-11-27T11:43:03.890Z,100113.00
2018-11-27T11:45:34.238Z,100108.00
2018-11-27T11:48:04.141Z,100111.00
2018-11-27T11:50:35.761Z,100115.00
2018-11-27T11:53:17.514Z,100110.00
2018-11-27T11:55:50.148Z,100108.00
2018-11-27T11:58:19.905Z,100118.00
2018-11-27T12:00:51.991Z,100122.00
2018-11-27T12:03:21.520Z,100129.00
2018-11-27T12:05:51.876Z,100132.00
2018-11-27T12:08:21.594Z,100140.00
2018-11-27T12:10:51.561Z,100139.00
2018-11-27T12:13:25.652Z,100138.00
2018-11-27T12:15:56.009Z,100139.00
2018-11-27T12:18:25.689Z,100139.00
2018-11-27T12:20:55.460Z,100133.00
2018-11-27T12:23:25.320Z,100135.00
2018-11-27T12:25:55.830Z,100135.00
2018-11-27T12:33:25.503Z,100131.00
2018-11-27T12:35:54.523Z,100126.00
2018-11-27T12:38:23.594Z,100130.00
2018-11-27T12:40:52.610Z,100128.00
2018-11-27T12:43:21.693Z,100124.00
2018-11-27T12:45:50.704Z,100117.00
2018-11-27T12:48:19.916Z,100121.00
2018-11-27T12:50:49.664Z,100124.00
2018-11-27T12:53:19.258Z,100119.00
2018-11-27T12:55:51.187Z,100123.00
2018-11-27T12:58:20.254Z,100121.00
2018-11-27T13:00:49.484Z,100123.00
2018-11-27T13:03:18.610Z,100126.00
2018-11-27T13:05:48.093Z,100131.00
2018-11-27T13:08:22.012Z,100133.00
2018-11-27T13:10:51.413Z,100129.00
2018-11-27T13:13:20.505Z,100132.00
2018-11-27T13:15:49.586Z,100124.00
2018-11-27T13:18:18.663Z,100125.00
2018-11-27T13:20:47.695Z,100120.00
2018-11-27T13:23:16.713Z,100116.00
2018-11-27T13:25:45.882Z,100116.00
2018-11-27T13:28:15.559Z,100119.00
2018-11-27T13:30:55.914Z,100130.00
2018-11-27T13:33:31.420Z,100129.00
2018-11-27T13:36:00.573Z,100126.00
2018-11-27T13:38:29.622Z,100127.00
2018-11-27T13:40:58.655Z,100132.00
2018-11-27T13:43:29.322Z,100135.00
2018-11-27T13:46:00.011Z,100137.00
2018-11-27T13:48:29.383Z,100137.00
2018-11-27T13:50:58.421Z,100133.00
2018-11-27T13:53:27.486Z,100134.00
2018-11-27T13:55:56.551Z,100133.00
2018-11-27T13:58:25.610Z,100131.00
2018-11-27T14:00:54.674Z,100134.00
2018-11-27T14:03:23.703Z,100132.00
2018-11-27T14:05:52.719Z,100133.00
2018-11-27T14:08:21.801Z,100141.00
2018-11-27T14:10:50.849Z,100138.00
2018-11-27T14:13:19.926Z,100139.00
2018-11-27T14:15:48.950Z,100138.00
2018-11-27T14:18:18.398Z,100142.00
2018-11-27T14:20:47.488Z,100145.00
2018-11-27T14:23:16.483Z,100156.00
2018-11-27T14:25:45.514Z,100156.00
2018-11-27T14:28:14.531Z,100158.00
2018-11-27T14:30:43.593Z,100156.00
2018-11-27T14:33:12.606Z,100161.00
2018-11-27T14:35:41.639Z,100169.00
2018-11-27T14:38:11.658Z,100162.00
2018-11-27T14:40:41.675Z,100166.00
2018-11-27T14:43:11.754Z,100163.00
2018-11-27T14:45:40.795Z,100165.00
2018-11-27T14:48:09.942Z,100160.00
2018-11-27T14:50:38.978Z,100162.00
2018-11-27T14:53:08.099Z,100150.00
2018-11-27T14:55:37.322Z,100153.00
2018-11-27T14:58:06.804Z,100150.00
2018-11-27T15:00:35.919Z,100156.00
2018-11-27T15:03:05.624Z,100151.00
2018-11-27T15:05:37.312Z,100143.00
2018-11-27T15:08:08.903Z,100142.00
2018-11-27T15:10:37.926Z,100150.00
2018-11-27T15:13:08.006Z,100146.00
2018-11-27T15:15:37.248Z,100151.00
2018-11-27T15:18:07.232Z,100153.00
2018-11-27T15:20:36.303Z,100151.00
2018-11-27T15:23:05.331Z,100144.00
2018-11-27T15:25:34.443Z,100137.00
2018-11-27T15:28:03.596Z,100142.00
2018-11-27T15:30:38.546Z,100138.00
2018-11-27T15:33:07.927Z,100142.00
2018-11-27T15:35:37.886Z,100146.00
2018-11-27T15:38:07.690Z,100142.00
2018-11-27T15:40:38.203Z,100137.00
2018-11-27T15:43:07.374Z,100145.00
2018-11-27T15:45:36.382Z,100147.00
2018-11-27T15:48:08.152Z,100148.00
2018-11-27T15:50:37.300Z,100150.00
2018-11-27T15:53:06.705Z,100145.00
2018-11-27T15:55:38.954Z,100148.00
2018-11-27T15:58:13.535Z,100151.00
2018-11-27T16:00:43.683Z,100157.00
2018-11-27T16:03:12.999Z,100164.00
2018-11-27T16:05:44.196Z,100165.00
2018-11-27T16:08:13.699Z,100164.00
2018-11-27T16:10:42.730Z,100166.00
2018-11-27T16:13:11.850Z,100164.00
2018-11-27T16:15:41.938Z,100162.00
2018-11-27T16:18:11.237Z,100158.00
2018-11-27T16:20:40.316Z,100156.00
2018-11-27T16:23:09.447Z,100152.00
2018-11-27T16:25:38.519Z,100154.00
2018-11-27T16:28:07.635Z,100159.00
2018-11-27T16:30:36.675Z,100161.00
2018-11-27T16:33:06.375Z,100159.00
2018-11-27T16:35:35.547Z,100162.00
2018-11-27T16:38:04.769Z,100158.00
2018-11-27T16:40:37.344Z,100165.00
2018-11-27T16:43:06.522Z,100170.00
2018-11-27T16:45:35.552Z,100167.00
2018-11-27T16:48:04.584Z,100168.00
2018-11-27T16:50:34.390Z,100163.00
2018-11-27T16:53:04.435Z,100156.00
2018-11-27T16:55:34.522Z,100152.00
2018-11-27T16:58:03.633Z,100159.00
2018-11-27T17:00:34.658Z,100164.00
2018-11-27T17:03:05.334Z,100162.00
2018-11-27T17:05:37.713Z,100158.00
2018-11-27T17:08:06.891Z,100158.00
2018-11-27T17:10:36.314Z,100158.00
2018-11-27T17:13:08.140Z,100164.00
2018-11-27T17:15:37.324Z,100168.00
2018-11-27T17:18:06.863Z,100162.00
2018-11-27T17:20:38.112Z,100164.00
2018-11-27T17:23:10.650Z,100162.00
2018-11-27T17:25:39.727Z,100163.00
2018-11-27T17:28:18.780Z,100161.00
2018-11-27T17:30:59.942Z,100162.00
2018-11-27T17:33:33.668Z,100160.00
2018-11-27T17:36:03.730Z,100159.00
2018-11-27T17:38:32.727Z,100163.00
2018-11-27T17:41:02.223Z,100167.00
2018-11-27T17:43:31.278Z,100159.00
2018-11-27T17:46:00.382Z,100157.00
2018-11-27T17:48:29.450Z,100158.00
2018-11-27T17:50:58.628Z,100159.00
2018-11-27T17:53:27.824Z,100162.00
2018-11-27T17:55:56.905Z,100160.00
2018-11-27T17:58:26.072Z,100165.00
2018-11-27T18:00:55.134Z,100169.00
2018-11-27T18:03:24.202Z,100171.00
2018-11-27T18:05:53.279Z,100172.00
2018-11-27T18:08:22.351Z,100176.00
2018-11-27T18:10:51.801Z,100180.00
2018-11-27T18:13:21.713Z,100183.00
2018-11-27T18:15:50.756Z,100187.00
2018-11-27T18:18:19.795Z,100187.00
2018-11-27T18:20:48.840Z,100177.00
2018-11-27T18:23:17.907Z,100177.00
2018-11-27T18:25:46.967Z,100180.00
2018-11-27T18:28:16.014Z,100179.00
2018-11-27T18:30:45.677Z,100187.00
2018-11-27T18:33:14.143Z,100188.00
2018-11-27T18:35:43.179Z,100181.00
2018-11-27T18:38:12.200Z,100179.00
2018-11-27T18:40:41.237Z,100177.00
2018-11-27T18:43:11.122Z,100173.00
2018-11-27T18:45:40.202Z,100178.00
2018-11-27T18:48:09.338Z,100185.00
2018-11-27T18:50:38.435Z,100175.00
2018-11-27T18:53:07.719Z,100181.00
2018-11-27T18:55:36.836Z,100177.00
2018-11-27T18:58:06.053Z,100179.00
2018-11-27T19:00:35.515Z,100179.00
2018-11-27T19:03:04.885Z,100175.00
2018-11-27T19:05:33.938Z,100175.00
2018-11-27T19:08:02.984Z,100175.00
2018-11-27T19:10:33.528Z,100173.00
2018-11-27T19:13:02.787Z,100173.00
2018-11-27T19:15:36.023Z,100172.00
2018-11-27T19:18:14.436Z,100161.00
2018-11-27T19:20:43.573Z,100163.00
2018-11-27T19:23:12.639Z,100164.00
2018-11-27T19:25:41.694Z,100159.00
2018-11-27T19:28:10.933Z,100154.00
2018-11-27T19:30:39.969Z,100160.00
2018-11-27T19:33:09.514Z,100152.00
2018-11-27T19:35:38.891Z,100158.00
2018-11-27T19:38:11.492Z,100157.00
2018-11-27T19:40:40.582Z,100158.00
2018-11-27T19:43:09.670Z,100160.00
2018-11-27T19:45:38.863Z,100162.00
2018-11-27T19:48:09.502Z,100169.00
2018-11-27T19:50:38.693Z,100161.00
2018-11-27T19:53:12.101Z,100165.00
2018-11-27T19:55:42.624Z,100158.00
2018-11-27T19:58:13.178Z,100162.00
2018-11-27T20:00:45.204Z,100165.00
2018-11-27T20:03:16.467Z,100168.00
2018-11-27T20:05:52.684Z,100170.00
2018-11-27T20:08:26.252Z,100171.00
2018-11-27T20:10:56.999Z,100167.00
2018-11-27T20:13:29.300Z,100161.00
2018-11-27T20:16:01.236Z,100170.00
2018-11-27T20:18:38.361Z,100176.00
2018-11-27T20:21:19.220Z,100170.00
2018-11-27T20:24:12.231Z,100172.00
2018-11-27T20:26:43.294Z,100178.00
2018-11-27T20:29:15.194Z,100178.00
2018-11-27T20:31:50.918Z,100178.00
2018-11-27T20:34:31.118Z,100174.00
2018-11-27T20:37:03.085Z,100175.00
2018-11-27T20:42:22.859Z,100169.00
2018-11-27T20:45:19.167Z,100179.00
2018-11-27T20:47:46.432Z,100180.00
2018-11-27T20:50:25.049Z,100175.00
2018-11-27T20:53:02.762Z,100181.00
2018-11-27T20:55:32.697Z,100178.00
2018-11-27T20:58:03.459Z,100178.00
2018-11-27T21:00:36.817Z,100181.00
2018-11-27T21:03:08.766Z,100178.00
2018-11-27T21:05:38.636Z,100184.00
2018-11-27T21:08:09.776Z,100184.00
2018-11-27T21:10:42.178Z,100186.00
2018-11-27T21:13:13.672Z,100187.00
2018-11-27T21:15:44.542Z,100184.00
2018-11-27T21:18:15.749Z,100179.00
2018-11-27T21:20:46.765Z,100186.00
2018-11-27T21:23:22.050Z,100187.00
2018-11-27T21:26:21.765Z,100183.00
2018-11-27T21:29:11.479Z,100184.00
2018-11-27T21:31:44.637Z,100184.00
2018-11-27T21:34:14.784Z,100178.00
2018-11-27T21:36:45.592Z,100180.00
2018-11-27T21:39:15.502Z,100182.00
2018-11-27T21:41:47.095Z,100179.00
2018-11-27T21:44:19.424Z,100173.00
2018-11-27T21:46:53.075Z,100179.00
2018-11-27T21:49:28.989Z,100174.00
2018-11-27T21:52:04.030Z,100170.00
2018-11-27T21:54:36.595Z,100169.00
2018-11-27T21:57:10.702Z,100176.00
2018-11-27T21:59:42.459Z,100172.00
2018-11-27T22:02:14.091Z,100178.00
2018-11-27T22:04:47.629Z,100168.00
2018-11-27T22:07:21.566Z,100173.00
2018-11-27T22:09:55.729Z,100177.00
2018-11-27T22:12:31.957Z,100172.00
2018-11-27T22:15:03.581Z,100168.00
2018-11-27T22:17:35.658Z,100165.00
2018-11-27T22:20:12.147Z,100167.00
2018-11-27T22:22:43.352Z,100167.00
2018-11-27T22:25:15.372Z,100175.00
2018-11-27T22:27:45.934Z,100172.00
2018-11-27T22:30:18.949Z,100171.00
2018-11-27T22:32:57.954Z,100174.00
2018-11-27T22:35:27.510Z,100165.00
2018-11-27T22:38:01.893Z,100161.00
2018-11-27T22:40:31.563Z,100162.00
2018-11-27T22:43:02.812Z,100163.00
2018-11-27T22:45:39.975Z,100163.00
2018-11-27T22:48:12.266Z,100169.00
2018-11-27T22:50:41.890Z,100166.00
2018-11-27T22:53:12.126Z,100169.00
2018-11-27T22:55:43.296Z,100165.00
2018-11-27T22:58:13.937Z,100166.00
2018-11-27T23:00:52.131Z,100165.00
2018-11-27T23:03:22.708Z,100160.00
2018-11-27T23:05:56.646Z,100168.00
2018-11-27T23:08:26.370Z,100163.00
2018-11-27T23:10:56.311Z,100157.00
2018-11-27T23:13:27.668Z,100158.00
2018-11-27T23:15:57.675Z,100161.00
2018-11-27T23:18:27.007Z,100166.00
2018-11-27T23:20:56.295Z,100162.00
2018-11-27T23:23:25.750Z,100156.00
2018-11-27T23:25:56.294Z,100157.00
2018-11-27T23:28:25.689Z,100151.00
2018-11-27T23:30:55.413Z,100154.00
2018-11-27T23:33:25.409Z,100146.00
2018-11-27T23:35:55.476Z,100151.00
2018-11-27T23:38:25.039Z,100149.00
2018-11-27T23:40:54.875Z,100146.00
2018-11-27T23:43:24.669Z,100141.00
2018-11-27T23:45:54.428Z,100134.00
2018-11-27T23:48:23.947Z,100127.00
2018-11-27T23:50:53.675Z,100113.00
2018-11-27T23:53:24.125Z,100121.00
2018-11-27T23:55:54.412Z,100123.00
2018-11-27T23:58:24.541Z,100120.00
